Time;durP1;ratioP1;P1;durP2;ratioP2;P2;SDS_P1;SDS_P2;PMS_P1;PMS_P2;Temp;Humidity;BMP_temperature;BMP_pressure;BME280_temperature;BME280_humidity;BME280_pressure;Samples;Min_cycle;Max_cycle;Signal;HPM_P1;HPM_P2
2024/01/01 00:01:59;;;;;;;15.10;6.20;;;;;;;7.12;95.32;99750.44;5035161;28;20041;-86
2024/01/01 00:04:29;;;;;;;14.97;5.07;;;;;;;7.13;94.38;99759.03;5034695;28;20045;-86
2024/01/01 00:06:54;;;;;;;13.35;4.22;;;;;;;7.06;94.97;99761.72;5033475;28;20030;-85
2024/01/01 00:09:20;;;;;;;12.50;4.47;;;;;;;7.08;94.98;99767.69;5035486;28;20028;-85
2024/01/01 00:11:45;;;;;;;9.20;3.80;;;;;;;7.07;94.88;99771.16;5034677;28;20504;-85
2024/01/01 00:14:11;;;;;;;10.53;3.70;;;;;;;7.02;94.85;99780.72;5034661;28;20026;-85
2024/01/01 00:16:36;;;;;;;10.97;3.37;;;;;;;7.06;93.11;99772.03;5034363;28;20112;-84
2024/01/01 00:19:02;;;;;;;7.85;2.53;;;;;;;7.00;92.60;99795.38;5039357;28;20311;-84
2024/01/01 00:21:28;;;;;;;6.95;2.08;;;;;;;6.95;91.42;99785.13;5044185;28;20072;-85
2024/01/01 00:23:53;;;;;;;4.68;1.73;;;;;;;6.85;93.11;99785.31;5035116;28;20026;-84
2024/01/01 00:26:18;;;;;;;4.27;1.80;;;;;;;6.79;93.51;99778.53;5039909;28;20037;-84
2024/01/01 00:28:44;;;;;;;3.33;1.88;;;;;;;6.72;93.90;99779.53;5034344;28;20029;-85
2024/01/01 00:31:09;;;;;;;3.05;2.00;;;;;;;6.69;94.61;99771.81;5034177;28;20033;-85
2024/01/01 00:33:34;;;;;;;4.33;2.00;;;;;;;6.66;94.28;99772.72;5034204;28;20381;-86
2024/01/01 00:35:59;;;;;;;6.55;2.20;;;;;;;6.63;94.44;99777.94;5034382;28;20056;-85
2024/01/01 00:38:25;;;;;;;6.57;2.20;;;;;;;6.46;95.52;99768.75;5034389;28;20482;-85
2024/01/01 00:40:50;;;;;;;7.47;2.40;;;;;;;6.42;95.42;99779.09;5033607;28;20411;-85
2024/01/01 00:43:15;;;;;;;4.77;2.30;;;;;;;6.33;96.89;99767.25;5034343;28;20021;-86
2024/01/01 00:45:41;;;;;;;6.45;2.42;;;;;;;6.24;97.65;99775.09;5033765;28;20029;-85
2024/01/01 00:48:07;;;;;;;5.18;2.25;;;;;;;6.15;96.82;99770.94;5033810;28;20026;-86
2024/01/01 00:50:32;;;;;;;5.57;2.40;;;;;;;6.18;97.46;99769.16;5033472;28;20084;-85
2024/01/01 00:53:00;;;;;;;7.23;2.40;;;;;;;6.11;98.34;99780.44;5034275;28;20052;-86
2024/01/01 00:55:25;;;;;;;4.18;2.30;;;;;;;6.06;97.89;99792.50;5045692;28;20032;-86
2024/01/01 00:57:57;;;;;;;4.90;2.17;;;;;;;6.01;97.78;99787.44;5053826;28;20032;-86
2024/01/01 01:00:22;;;;;;;4.55;2.22;;;;;;;5.98;97.70;99781.44;5053964;28;20040;-86
2024/01/01 01:02:47;;;;;;;5.43;2.20;;;;;;;5.89;98.00;99761.81;5052833;28;20019;-85
2024/01/01 01:05:13;;;;;;;6.03;2.30;;;;;;;5.82;98.66;99768.75;5054247;28;20489;-86
2024/01/01 01:07:44;;;;;;;5.10;2.20;;;;;;;5.82;97.86;99775.63;5054378;28;20108;-85
2024/01/01 01:10:10;;;;;;;6.88;2.30;;;;;;;5.81;98.90;99779.09;5053641;28;20103;-85
2024/01/01 01:12:35;;;;;;;5.90;2.37;;;;;;;5.71;98.95;99781.78;5054028;28;20176;-85
2024/01/01 01:15:00;;;;;;;5.13;2.10;;;;;;;5.72;99.20;99785.19;5053252;28;20025;-86
2024/01/01 01:17:26;;;;;;;5.23;2.27;;;;;;;5.68;100.00;99778.41;5053363;28;20031;-85
2024/01/01 01:19:51;;;;;;;7.10;2.45;;;;;;;5.69;100.00;99786.09;5053381;28;20064;-86
2024/01/01 01:22:17;;;;;;;7.50;3.07;;;;;;;5.72;100.00;99780.91;5053165;28;20094;-85
2024/01/01 01:24:42;;;;;;;8.23;2.87;;;;;;;5.70;100.00;99790.38;5046030;28;20018;-86
2024/01/01 01:27:07;;;;;;;5.97;2.50;;;;;;;5.77;100.00;99796.31;5033156;28;20103;-86
2024/01/01 01:29:33;;;;;;;8.30;2.80;;;;;;;5.70;100.00;99790.38;5033185;28;20032;-85
2024/01/01 01:31:58;;;;;;;8.18;3.08;;;;;;;5.78;100.00;99800.59;5032524;28;20478;-86
2024/01/01 01:34:23;;;;;;;6.38;2.72;;;;;;;5.75;100.00;99804.88;5033540;28;20057;-86
2024/01/01 01:36:49;;;;;;;7.43;2.57;;;;;;;5.80;100.00;99800.56;5032663;28;20105;-86
2024/01/01 01:39:14;;;;;;;6.10;2.27;;;;;;;5.83;100.00;99800.53;5032906;28;20040;-85
2024/01/01 01:41:39;;;;;;;8.33;2.20;;;;;;;5.80;100.00;99790.25;5033299;28;20458;-85
2024/01/01 01:44:05;;;;;;;5.00;2.00;;;;;;;5.80;100.00;99793.66;5032366;28;20049;-85
2024/01/01 01:46:30;;;;;;;6.50;2.47;;;;;;;5.80;100.00;99791.09;5034508;28;20043;-85
2024/01/01 01:48:57;;;;;;;7.33;2.50;;;;;;;5.81;100.00;99789.38;5032682;28;20026;-86
2024/01/01 01:51:24;;;;;;;7.50;2.20;;;;;;;5.81;100.00;99794.53;5032440;28;20120;-86
2024/01/01 01:53:52;;;;;;;7.10;2.17;;;;;;;5.81;100.00;99789.38;5033064;28;20528;-85
2024/01/01 01:56:18;;;;;;;4.97;2.00;;;;;;;5.75;100.00;99784.28;5033646;28;20080;-86
2024/01/01 01:58:43;;;;;;;7.37;2.00;;;;;;;5.73;100.00;99779.19;5032454;28;20017;-86
2024/01/01 02:01:11;;;;;;;6.60;2.17;;;;;;;5.72;100.00;99792.91;5033334;28;20116;-86
2024/01/01 02:03:36;;;;;;;7.45;2.20;;;;;;;5.73;100.00;99792.03;5032752;28;20064;-87
2024/01/01 02:06:07;;;;;;;7.67;2.20;;;;;;;5.79;100.00;99793.69;5032649;28;20041;-86
2024/01/01 02:08:32;;;;;;;6.22;2.03;;;;;;;5.80;100.00;99798.81;5033366;28;20401;-86
2024/01/01 02:10:58;;;;;;;5.43;2.30;;;;;;;5.81;100.00;99799.69;5210797;23;20053;-87
2024/01/01 02:13:25;;;;;;;8.73;2.50;;;;;;;5.79;100.00;99794.56;5053971;28;20060;-87
2024/01/01 02:15:50;;;;;;;;;;;;;;;5.83;100.00;99806.50;5057085;28;20121;-87
2024/01/01 02:18:16;;;;;;;6.57;2.00;;;;;;;5.83;100.00;99798.78;5057348;28;20003;-87
2024/01/01 02:20:41;;;;;;;7.07;2.30;;;;;;;5.82;100.00;99791.09;5056308;28;20025;-87
2024/01/01 02:23:07;;;;;;;10.75;2.50;;;;;;;5.87;100.00;99805.59;5056978;28;20033;-86
2024/01/01 02:32:21;;;;;;;8.50;2.05;;;;;;;5.86;100.00;99814.22;5057360;28;20075;-87
2024/01/01 02:35:08;;;;;;;7.00;1.98;;;;;;;5.89;100.00;99808.16;5048599;28;20033;-87
2024/01/01 02:44:23;;;;;;;10.45;2.20;;;;;;;5.77;100.00;99806.59;5057081;28;20079;-88
2024/01/01 02:46:49;;;;;;;9.32;2.05;;;;;;;5.83;100.00;99819.38;5056441;28;20037;-88
2024/01/01 02:49:14;;;;;;;9.03;2.07;;;;;;;5.88;100.00;99822.78;5055682;28;20107;-87
2024/01/01 02:51:43;;;;;;;8.90;2.22;;;;;;;5.80;100.00;99801.38;5055463;28;20029;-88
2024/01/01 02:54:11;;;;;;;9.18;1.90;;;;;;;5.85;100.00;99827.94;5057120;28;20110;-87
2024/01/01 02:56:37;;;;;;;10.75;2.00;;;;;;;5.84;100.00;99840.84;5073756;28;20038;-88
2024/01/01 02:59:05;;;;;;;11.23;2.33;;;;;;;5.84;100.00;99833.97;5075911;28;20024;-87
2024/01/01 03:01:30;;;;;;;9.90;2.03;;;;;;;5.80;100.00;99832.28;5075275;28;20025;-87
2024/01/01 03:03:55;;;;;;;7.47;2.10;;;;;;;5.88;100.00;99827.91;5074222;28;20476;-88
2024/01/01 03:06:21;;;;;;;10.60;2.00;;;;;;;5.84;100.00;99830.56;5057224;28;20109;-87
2024/01/01 03:08:46;;;;;;;7.60;2.00;;;;;;;5.84;100.00;99827.97;5055002;28;20013;-87
2024/01/01 03:11:12;;;;;;;6.53;1.80;;;;;;;5.81;100.00;99822.84;5056011;28;20044;-87
2024/01/01 03:13:37;;;;;;;9.20;2.10;;;;;;;5.83;100.00;99829.69;5055797;28;20028;-87
2024/01/01 03:16:03;;;;;;;8.65;1.98;;;;;;;5.81;100.00;99825.44;5054802;28;20465;-86
2024/01/01 03:18:28;;;;;;;9.40;2.33;;;;;;;5.90;100.00;99840.75;5055558;28;20048;-86
2024/01/01 03:20:54;;;;;;;10.87;2.30;;;;;;;5.84;100.00;99826.25;5055977;28;20047;-85
2024/01/01 03:23:19;;;;;;;7.60;2.00;;;;;;;5.81;100.00;99834.00;5055259;28;20024;-85
2024/01/01 03:25:44;;;;;;;5.53;1.80;;;;;;;5.72;100.00;99829.81;5069394;28;20492;-86
2024/01/01 03:28:13;;;;;;;8.93;2.20;;;;;;;5.80;100.00;99844.31;5077556;28;20041;-86
2024/01/01 03:30:38;;;;;;;6.55;1.95;;;;;;;5.77;100.00;99847.78;5079129;28;20028;-86
2024/01/01 03:35:31;;;;;;;7.97;2.00;;;;;;;5.75;100.00;99852.09;5140457;22;20053;-85
2024/01/01 03:37:57;;;;;;;5.00;1.63;;;;;;;5.75;100.00;99839.22;5015216;28;20077;-86
2024/01/01 03:40:22;;;;;;;8.20;1.90;;;;;;;5.72;100.00;99840.13;5016155;28;20017;-86
2024/01/01 03:42:47;;;;;;;7.75;2.00;;;;;;;5.74;100.00;99827.22;5015418;28;20467;-87
2024/01/01 03:45:15;;;;;;;9.93;2.00;;;;;;;5.72;100.00;99836.69;5014798;28;20022;-87
2024/01/01 03:47:43;;;;;;;6.78;2.00;;;;;;;5.78;100.00;99846.94;5015533;28;20382;-86
2024/01/01 03:50:09;;;;;;;7.25;2.05;;;;;;;5.76;100.00;99843.50;5015592;28;20025;-86
2024/01/01 03:52:34;;;;;;;5.33;1.90;;;;;;;5.75;100.00;99846.09;5014701;28;20466;-86
2024/01/01 03:54:59;;;;;;;8.40;1.90;;;;;;;5.74;100.00;99837.53;5023154;28;20056;-86
2024/01/01 03:57:25;;;;;;;9.15;1.88;;;;;;;5.72;100.00;99834.97;5034608;28;20029;-86
2024/01/01 03:59:50;;;;;;;8.17;1.87;;;;;;;5.74;100.00;99836.69;5034906;28;20116;-86
2024/01/01 04:02:15;;;;;;;10.17;2.07;;;;;;;5.76;100.00;99838.38;5035258;28;20036;-86
2024/01/01 04:04:44;;;;;;;10.70;1.97;;;;;;;5.76;100.00;99842.63;5034253;28;20117;-87
2024/01/01 04:07:10;;;;;;;8.00;2.20;;;;;;;5.71;100.00;99832.41;5035374;28;20029;-86
2024/01/01 04:09:35;;;;;;;11.27;2.70;;;;;;;5.92;100.00;99851.91;5034740;28;20025;-86
2024/01/01 04:12:01;;;;;;;7.50;1.90;;;;;;;5.76;100.00;99843.50;5033780;28;20112;-86
2024/01/01 04:14:28;;;;;;;8.40;2.27;;;;;;;5.77;100.00;99845.22;5034879;28;20102;-86
2024/01/01 04:16:53;;;;;;;13.60;2.15;;;;;;;5.77;100.00;99842.66;5034585;28;20021;-86
2024/01/01 04:19:21;;;;;;;7.93;2.20;;;;;;;5.78;100.00;99840.91;5035036;28;20029;-86
2024/01/01 04:21:46;;;;;;;7.82;2.33;;;;;;;5.72;100.00;99836.69;5034658;28;20033;-86
2024/01/01 04:24:12;;;;;;;8.63;2.00;;;;;;;5.76;100.00;99858.09;5033459;28;20033;-87
2024/01/01 04:26:37;;;;;;;6.93;1.75;;;;;;;5.72;100.00;99850.44;5033549;28;20025;-85
2024/01/01 04:29:03;;;;;;;12.60;1.93;;;;;;;5.81;100.00;99857.16;5014981;28;20034;-87
2024/01/01 04:31:28;;;;;;;7.27;1.60;;;;;;;5.75;100.00;99852.09;5014951;28;20037;-86
2024/01/01 04:33:53;;;;;;;6.15;1.75;;;;;;;5.75;100.00;99856.38;5013905;28;20116;-87
2024/01/01 04:36:19;;;;;;;6.87;1.70;;;;;;;5.76;100.00;99852.94;5014004;28;20478;-86
2024/01/01 04:38:44;;;;;;;10.17;2.00;;;;;;;5.78;100.00;99849.50;5014409;28;20022;-86
2024/01/01 04:41:09;;;;;;;6.95;1.88;;;;;;;5.74;100.00;99854.72;5013925;28;20083;-86
2024/01/01 04:43:40;;;;;;;6.97;2.03;;;;;;;5.77;100.00;99855.50;5027483;28;20038;-87
2024/01/01 04:46:06;;;;;;;5.47;1.55;;;;;;;5.79;100.00;99851.22;5034114;28;20051;-85
2024/01/01 04:48:32;;;;;;;8.35;2.05;;;;;;;5.76;100.00;99858.09;5032504;28;20083;-86
2024/01/01 04:50:58;;;;;;;8.80;2.10;;;;;;;5.80;100.00;99860.59;5034267;28;20478;-86
2024/01/01 04:53:23;;;;;;;9.05;1.83;;;;;;;5.85;100.00;99860.59;5034098;28;20026;-86
2024/01/01 04:55:51;;;;;;;6.87;1.90;;;;;;;5.81;100.00;99879.50;5018319;28;20084;-86
2024/01/01 04:58:17;;;;;;;9.63;2.42;;;;;;;5.78;100.00;99885.53;5013999;28;20057;-86
2024/01/01 05:00:42;;;;;;;7.83;1.97;;;;;;;5.80;100.00;99882.94;5013433;28;20100;-86
2024/01/01 05:03:07;;;;;;;7.07;1.90;;;;;;;5.88;100.00;99879.41;5015035;28;20021;-86
2024/01/01 05:05:33;;;;;;;8.87;2.10;;;;;;;5.80;100.00;99875.22;5014168;28;20029;-86
2024/01/01 05:07:58;;;;;;;9.73;2.00;;;;;;;5.86;100.00;99888.00;5028690;28;20026;-86
2024/01/01 05:10:24;;;;;;;8.23;2.00;;;;;;;5.81;100.00;99889.81;5034304;28;20113;-85
2024/01/01 05:12:49;;;;;;;8.90;1.85;;;;;;;5.86;100.00;99899.19;5033825;28;20029;-86
2024/01/01 05:15:14;;;;;;;8.10;2.20;;;;;;;5.88;100.00;99882.00;5032442;28;20044;-86
2024/01/01 05:17:40;;;;;;;9.95;2.20;;;;;;;5.85;100.00;99891.47;5034297;28;20458;-86
2024/01/01 05:20:06;;;;;;;6.57;2.00;;;;;;;5.84;100.00;99888.03;5034521;28;20029;-86
2024/01/01 05:22:31;;;;;;;6.73;1.70;;;;;;;5.85;100.00;99896.63;5202504;22;20386;-83
2024/01/01 05:24:56;;;;;;;4.93;1.70;;;;;;;5.84;100.00;99905.22;5055528;28;20028;-84
2024/01/01 05:27:22;;;;;;;6.73;1.90;;;;;;;5.83;100.00;99901.78;5053331;28;20025;-85
2024/01/01 05:29:48;;;;;;;6.40;1.80;;;;;;;5.85;100.00;99906.94;5052554;28;20032;-86
2024/01/01 05:32:16;;;;;;;10.13;1.80;;;;;;;5.87;100.00;99900.88;5053939;28;20039;-84
2024/01/01 05:34:42;;;;;;;7.80;1.80;;;;;;;5.84;100.00;99905.22;5053661;28;20025;-85
2024/01/01 05:39:45;;;;;;;6.25;2.03;;;;;;;5.86;100.00;99909.47;5137869;22;20056;-85
2024/01/01 05:42:13;;;;;;;7.53;2.15;;;;;;;5.86;100.00;99912.06;5073717;28;20039;-85
2024/01/01 05:44:38;;;;;;;7.88;1.90;;;;;;;5.86;100.00;99919.78;5072896;28;20016;-85
2024/01/01 05:47:04;;;;;;;7.03;1.60;;;;;;;5.85;100.00;99922.38;5074597;28;20434;-85
2024/01/01 05:49:29;;;;;;;7.25;1.73;;;;;;;5.87;100.00;99926.66;5077473;28;20028;-85
2024/01/01 05:51:54;;;;;;;5.40;1.77;;;;;;;5.88;100.00;99932.63;5075911;28;20082;-84
2024/01/01 05:54:20;;;;;;;7.90;1.70;;;;;;;5.86;100.00;99931.78;5077454;28;20060;-85
2024/01/01 05:56:45;;;;;;;10.70;2.00;;;;;;;5.83;100.00;99932.69;5161232;22;20048;-85
2024/01/01 05:59:10;;;;;;;8.15;2.08;;;;;;;5.83;100.00;99949.88;5057360;28;20392;-85
2024/01/01 06:01:35;;;;;;;6.97;2.30;;;;;;;5.82;100.00;99936.13;5056803;28;20503;-84
2024/01/01 06:04:01;;;;;;;10.50;2.13;;;;;;;5.81;100.00;99956.75;5056633;28;20036;-85
2024/01/01 06:06:26;;;;;;;7.10;1.80;;;;;;;5.76;100.00;99949.06;5057397;28;20102;-85
2024/01/01 06:08:52;;;;;;;9.20;2.10;;;;;;;5.71;100.00;99951.69;5057171;28;20017;-85
2024/01/01 06:11:17;;;;;;;8.40;2.10;;;;;;;5.71;100.00;99943.09;5056891;28;20024;-86
2024/01/01 06:13:44;;;;;;;6.03;1.77;;;;;;;5.66;100.00;99950.88;5064822;28;20041;-85
2024/01/01 06:16:09;;;;;;;5.78;1.70;;;;;;;5.64;100.00;99951.75;5065716;28;20056;-85
2024/01/01 06:18:34;;;;;;;6.30;2.07;;;;;;;5.63;100.00;99957.78;5067098;28;20025;-85
2024/01/01 06:21:00;;;;;;;7.73;1.80;;;;;;;5.66;100.00;99958.59;5061235;28;20056;-86
2024/01/01 06:23:25;;;;;;;12.00;2.17;;;;;;;5.64;100.00;99964.63;5057065;28;20523;-85
2024/01/01 06:25:52;;;;;;;5.83;1.60;;;;;;;5.60;100.00;99968.97;5058393;28;20389;-86
2024/01/01 06:28:17;;;;;;;6.97;1.83;;;;;;;5.62;100.00;99969.81;5057229;28;20351;-86
2024/01/01 06:30:43;;;;;;;4.47;1.33;;;;;;;5.58;100.00;99975.84;5057009;28;20035;-85
2024/01/01 06:33:08;;;;;;;8.32;1.80;;;;;;;5.60;100.00;99978.38;5056108;28;20043;-85
2024/01/01 06:35:33;;;;;;;5.63;1.43;;;;;;;5.54;100.00;99995.59;5075184;28;20074;-85
2024/01/01 06:37:59;;;;;;;8.02;1.80;;;;;;;5.57;100.00;99994.72;5076644;28;20021;-85
2024/01/01 06:40:25;;;;;;;6.50;1.90;;;;;;;5.50;100.00;99995.66;5075911;28;20039;-85
2024/01/01 06:42:50;;;;;;;7.78;1.80;;;;;;;5.49;100.00;100005.06;5076161;28;20017;-86
2024/01/01 06:45:15;;;;;;;4.90;1.50;;;;;;;5.49;100.00;100010.22;5062757;28;20041;-85
2024/01/01 06:47:41;;;;;;;4.67;1.63;;;;;;;5.46;100.00;100019.69;5055763;28;20393;-85
2024/01/01 06:50:22;;;;;;;2.97;1.33;;;;;;;5.36;100.00;100008.59;5177400;22;20047;-86
2024/01/01 06:52:51;;;;;;;6.32;1.80;;;;;;;5.37;100.00;100012.88;5096788;28;20056;-86
2024/01/01 06:55:22;;;;;;;6.28;1.70;;;;;;;5.41;100.00;100020.56;5106320;28;20035;-86
2024/01/01 06:58:15;;;;;;;4.80;1.60;;;;;;;5.50;100.00;100029.09;5117488;28;20422;-87
2024/01/01 07:00:40;;;;;;;8.13;1.95;;;;;;;5.47;100.00;100027.38;5113920;28;21515;-86
2024/01/01 07:03:21;;;;;;;6.73;1.83;;;;;;;5.49;100.00;100030.81;5117296;28;20041;-86
2024/01/01 07:06:01;;;;;;;6.93;1.90;;;;;;;5.49;100.00;100040.25;5117381;28;20019;-87
2024/01/01 07:08:27;;;;;;;6.35;1.70;;;;;;;5.48;100.00;100035.97;5116810;28;20042;-87
2024/01/01 07:10:53;;;;;;;9.13;2.00;;;;;;;5.55;100.00;100030.78;5117117;28;20028;-86
2024/01/01 07:13:18;;;;;;;7.28;1.80;;;;;;;5.56;100.00;100054.78;5116488;28;20016;-86
2024/01/01 07:15:45;;;;;;;8.93;1.83;;;;;;;5.55;100.00;100046.22;5115877;28;20020;-86
2024/01/01 07:18:11;;;;;;;7.68;2.00;;;;;;;5.54;100.00;100051.38;5116779;28;20056;-86
2024/01/01 07:20:36;;;;;;;8.00;1.93;;;;;;;5.54;100.00;100059.97;5110139;28;20024;-86
2024/01/01 07:23:01;;;;;;;5.77;1.73;;;;;;;5.53;100.00;100057.38;5095640;28;20028;-86
2024/01/01 07:25:27;;;;;;;5.80;1.80;;;;;;;5.53;100.00;100057.38;5096259;28;20494;-87
2024/01/01 07:27:53;;;;;;;11.40;2.25;;;;;;;5.50;100.00;100058.25;5096249;28;20027;-85
2024/01/01 07:30:18;;;;;;;8.93;2.20;;;;;;;5.57;100.00;100074.53;5095435;28;20020;-85
2024/01/01 07:32:44;;;;;;;7.47;1.80;;;;;;;5.50;100.00;100073.69;5096442;28;20494;-86
2024/01/01 07:35:12;;;;;;;6.05;1.80;;;;;;;5.48;100.00;100069.44;5096723;28;20020;-86
2024/01/01 07:37:40;;;;;;;7.25;2.03;;;;;;;5.40;100.00;100072.06;5095310;28;20050;-86
2024/01/01 07:40:06;;;;;;;5.72;1.55;;;;;;;5.44;100.00;100075.47;5456944;22;20033;-89
2024/01/01 07:42:31;;;;;;;6.23;1.60;;;;;;;5.40;100.00;100090.06;5074537;28;20075;-86
2024/01/01 07:44:57;;;;;;;3.70;1.70;;;;;;;5.40;100.00;100096.06;5075749;28;20052;-86
2024/01/01 07:47:27;;;;;;;5.75;1.95;;;;;;;5.40;100.00;100087.50;5076093;28;20385;-85
2024/01/01 07:49:52;;;;;;;6.07;1.95;;;;;;;5.38;100.00;100100.38;5075552;28;20104;-84
2024/01/01 07:52:18;;;;;;;6.63;1.90;;;;;;;5.36;100.00;100096.97;5075963;28;20051;-85
2024/01/01 07:54:43;;;;;;;9.20;1.80;;;;;;;5.39;100.00;100096.94;5076223;28;20025;-84
2024/01/01 07:57:11;;;;;;;4.40;1.77;;;;;;;5.36;100.00;100096.97;5074865;28;20050;-86
2024/01/01 07:59:36;;;;;;;7.95;1.90;;;;;;;5.37;100.00;100103.81;5078515;28;20026;-85
2024/01/01 08:02:04;;;;;;;4.60;1.80;;;;;;;5.32;100.00;100100.41;5085316;28;20463;-86
2024/01/01 08:04:32;;;;;;;4.75;1.73;;;;;;;5.28;100.00;100096.16;5076986;28;20109;-86
2024/01/01 08:06:57;;;;;;;3.60;1.60;;;;;;;5.33;100.00;100114.97;5078420;28;20031;-86
2024/01/01 08:09:23;;;;;;;4.23;1.43;;;;;;;5.28;100.00;100121.88;5095041;28;20028;-86
2024/01/01 08:11:48;;;;;;;4.90;1.60;;;;;;;5.26;100.00;100127.03;5093174;28;20046;-86
2024/01/01 08:14:14;;;;;;;7.97;1.90;;;;;;;5.29;100.00;100136.47;5094710;28;20051;-86
2024/01/01 08:16:39;;;;;;;7.25;1.60;;;;;;;5.27;100.00;100135.59;5094901;28;20483;-86
2024/01/01 08:19:04;;;;;;;5.40;1.60;;;;;;;5.23;100.00;100126.19;5094869;28;20416;-85
2024/01/01 08:21:29;;;;;;;4.13;1.65;;;;;;;5.37;100.00;100139.84;5090686;28;20017;-86
2024/01/01 08:23:55;;;;;;;6.73;2.00;;;;;;;5.33;100.00;100143.28;5094954;28;20024;-85
2024/01/01 08:26:20;;;;;;;5.60;1.80;;;;;;;5.37;100.00;100144.13;5094406;28;20103;-85
2024/01/01 08:28:51;;;;;;;5.82;1.80;;;;;;;5.31;100.00;100145.00;5094863;28;20050;-85
2024/01/01 08:31:18;;;;;;;7.22;1.80;;;;;;;5.40;100.00;100159.56;5094281;28;20476;-86
2024/01/01 08:33:47;;;;;;;5.93;1.98;;;;;;;5.42;100.00;100162.97;5070522;28;20393;-85
2024/01/01 08:36:12;;;;;;;7.38;2.10;;;;;;;5.46;100.00;100168.97;5083367;28;20020;-85
2024/01/01 08:38:37;;;;;;;7.17;2.40;;;;;;;5.47;100.00;100176.66;5093298;28;20385;-85
2024/01/01 08:41:03;;;;;;;8.98;2.33;;;;;;;5.53;100.00;100178.34;5091630;28;20599;-86
2024/01/01 08:43:29;;;;;;;7.57;1.90;;;;;;;5.50;100.00;100165.53;5092272;28;20032;-85
2024/01/01 08:45:54;;;;;;;8.52;2.40;;;;;;;5.57;100.00;100182.63;5076321;28;20026;-86
2024/01/01 08:48:19;;;;;;;7.07;2.10;;;;;;;5.61;100.00;100180.88;5094043;28;20098;-86
2024/01/01 08:50:45;;;;;;;5.10;1.90;;;;;;;5.61;100.00;100184.34;5094976;28;20032;-91
2024/01/01 08:53:10;;;;;;;9.80;2.50;;;;;;;5.65;100.00;100180.84;5094103;28;20028;-87
2024/01/01 08:55:36;;;;;;;7.53;2.10;;;;;;;5.66;100.00;100192.88;5094368;28;20436;-87
2024/01/01 08:58:01;;;;;;;5.78;2.28;;;;;;;5.60;100.00;100187.78;5098022;28;20384;-87
2024/01/01 09:00:30;;;;;;;9.50;2.37;;;;;;;5.64;100.00;100204.88;5100366;28;20074;-87
2024/01/01 09:02:55;;;;;;;6.53;2.08;;;;;;;5.69;100.00;100200.59;5100111;28;20432;-86
2024/01/01 09:05:20;;;;;;;6.10;2.10;;;;;;;5.69;100.00;100195.44;5099283;28;20020;-87
2024/01/01 09:07:46;;;;;;;10.90;2.13;;;;;;;5.79;100.00;100198.81;5085892;28;20051;-86
2024/01/01 09:10:11;;;;;;;8.20;2.05;;;;;;;5.74;100.00;100200.56;5072340;28;20487;-86
2024/01/01 09:12:36;;;;;;;7.00;1.98;;;;;;;5.78;100.00;100209.13;5071527;28;20035;-87
2024/01/01 09:15:02;;;;;;;5.05;2.00;;;;;;;5.78;100.00;100209.13;5071575;28;20025;-85
2024/01/01 09:17:27;;;;;;;8.30;2.10;;;;;;;5.74;100.00;100210.84;5072855;28;20027;-87
2024/01/01 09:19:53;;;;;;;6.10;2.13;;;;;;;5.77;100.00;100216.00;5073641;28;20488;-85
2024/01/01 09:22:19;;;;;;;9.70;2.22;;;;;;;5.83;100.00;100227.97;5072823;28;20077;-86
2024/01/01 09:24:45;;;;;;;7.45;2.20;;;;;;;5.81;100.00;100227.13;5074146;28;20035;-87
2024/01/01 09:27:10;;;;;;;4.43;1.90;;;;;;;5.82;100.00;100213.41;5074600;28;20020;-86
2024/01/01 09:29:35;;;;;;;5.70;2.10;;;;;;;5.88;100.00;100234.81;5072542;28;20434;-86
2024/01/01 09:32:00;;;;;;;4.40;2.05;;;;;;;5.90;100.00;100227.06;5073551;28;20086;-87
2024/01/01 09:34:27;;;;;;;6.78;2.00;;;;;;;5.95;100.00;100245.06;5071289;28;20120;-87
2024/01/01 09:36:55;;;;;;;5.73;1.83;;;;;;;5.87;100.00;100245.97;5064179;28;20035;-87
2024/01/01 09:39:20;;;;;;;5.35;1.85;;;;;;;5.86;100.00;100241.69;5092691;28;20503;-87
2024/01/01 09:41:46;;;;;;;5.87;1.90;;;;;;;5.85;100.00;100254.59;5075635;28;20076;-88
2024/01/01 09:44:11;;;;;;;4.07;1.80;;;;;;;5.85;100.00;100259.75;5072639;28;20119;-87
2024/01/01 09:46:53;;;;;;;6.57;2.00;;;;;;;5.82;100.00;100259.75;5069950;28;20036;-87
2024/01/01 09:49:27;;;;;;;7.15;2.13;;;;;;;5.80;100.00;100266.63;5073024;28;20074;-88
2024/01/01 09:51:56;;;;;;;4.15;2.00;;;;;;;5.66;100.00;100249.50;5073358;28;20021;-87
2024/01/01 09:54:21;;;;;;;3.05;1.60;;;;;;;5.78;100.00;100278.63;5074188;28;20100;-86
2024/01/01 09:56:47;;;;;;;5.50;2.00;;;;;;;5.64;100.00;100253.81;5073920;28;20037;-87
2024/01/01 09:59:35;;;;;;;5.75;2.05;;;;;;;5.86;100.00;100259.72;5068944;28;20025;-87
2024/01/01 10:02:09;;;;;;;8.13;2.10;;;;;;;5.79;100.00;100268.34;5068906;28;20036;-87
2024/01/01 10:04:44;;;;;;;7.70;2.30;;;;;;;5.78;100.00;100271.78;5070318;28;20050;-86
2024/01/01 10:07:09;;;;;;;7.38;2.33;;;;;;;5.92;100.00;100284.59;5070082;28;20024;-87
2024/01/01 10:09:48;;;;;;;6.23;2.30;;;;;;;5.92;100.00;100287.16;5072862;28;20033;-87
2024/01/01 10:12:22;;;;;;;6.47;2.10;;;;;;;6.00;100.00;100297.47;5072598;28;20415;-87
2024/01/01 10:14:49;;;;;;;4.57;1.90;;;;;;;5.92;100.00;100287.16;5072469;28;20081;-87
2024/01/01 10:17:15;;;;;;;;;;;;;;;6.03;100.00;100305.16;5069170;28;20369;-86
2024/01/01 10:19:56;;;;;;;6.00;1.90;;;;;;;6.03;100.00;100300.88;5072176;28;19917;-86
2024/01/01 10:22:29;;;;;;;5.55;1.92;;;;;;;6.05;100.00;100307.75;5072570;28;20028;-87
2024/01/01 10:25:09;;;;;;;4.30;2.08;;;;;;;6.08;100.00;100302.59;5070266;28;20066;-86
2024/01/01 10:30:09;;;;;;;7.70;2.00;;;;;;;6.28;100.00;100308.47;5120843;22;20105;-87
2024/01/01 10:32:37;;;;;;;6.27;1.80;;;;;;;6.47;100.00;100306.59;5104294;28;20016;-87
2024/01/01 10:35:08;;;;;;;4.20;2.00;;;;;;;6.65;100.00;100315.09;5108598;28;20472;-87
2024/01/01 10:37:38;;;;;;;6.25;2.00;;;;;;;6.89;100.00;100311.44;5106444;28;20107;-86
2024/01/01 10:40:05;;;;;;;9.43;2.45;;;;;;;7.09;100.00;100311.28;5107210;28;20055;-86
2024/01/01 10:42:47;;;;;;;;;;;;;;;7.21;100.00;100315.44;5104874;28;20028;-86
2024/01/01 10:45:13;;;;;;;9.18;2.60;;;;;;;7.34;100.00;100321.38;5113010;28;19943;-86
2024/01/01 10:47:42;;;;;;;5.37;2.33;;;;;;;7.30;100.00;100314.50;5116171;28;20510;-86
2024/01/01 10:50:24;;;;;;;10.98;2.83;;;;;;;7.34;100.00;100320.50;5116507;28;20447;-86
2024/01/01 10:53:19;;;;;;;9.75;2.72;;;;;;;7.30;100.00;100330.00;5110781;28;20073;-87
2024/01/01 10:56:11;;;;;;;8.67;2.73;;;;;;;7.21;100.00;100328.34;5096435;28;20060;-86
2024/01/01 10:59:20;;;;;;;8.18;2.38;;;;;;;7.10;100.00;100332.75;5113305;28;20020;-86
2024/01/01 11:01:45;;;;;;;6.95;2.33;;;;;;;6.98;100.00;100312.25;5113645;28;20546;-87
2024/01/01 11:04:53;;;;;;;6.97;2.10;;;;;;;6.86;100.00;100302.88;5121557;22;20054;-87
2024/01/01 11:08:09;;;;;;;10.52;2.78;;;;;;;6.90;100.00;100327.78;5106781;28;20286;-87
2024/01/01 11:10:45;;;;;;;11.10;2.47;;;;;;;6.79;100.00;100328.75;5064193;28;20130;-86
2024/01/01 11:13:30;;;;;;;10.95;2.10;;;;;;;6.68;100.00;100340.00;5098268;28;20036;-86
2024/01/01 11:16:45;;;;;;;9.38;2.35;;;;;;;6.65;100.00;100328.81;5071185;22;20068;-87
2024/01/01 11:19:10;;;;;;;10.68;2.58;;;;;;;6.56;100.00;100326.31;5058592;22;20464;-85
2024/01/01 11:21:38;;;;;;;11.33;2.43;;;;;;;6.51;100.00;100322.94;5074322;28;20024;-86
2024/01/01 11:28:02;;;;;;;11.60;2.72;;;;;;;6.58;100.00;100354.69;5099325;22;20063;-85
2024/01/01 11:31:24;;;;;;;;;;;;;;;;;;;;;
2024/01/01 11:34:50;;;;;;;8.50;2.35;;;;;;;6.64;100.00;100365.78;5096074;22;20060;-88
2024/01/01 11:37:37;;;;;;;;;;;;;;;6.74;100.00;100365.75;5094801;28;20052;-86
2024/01/01 11:40:10;;;;;;;10.30;2.20;;;;;;;6.63;100.00;100346.06;5106925;28;19919;-85
2024/01/01 11:42:37;;;;;;;6.57;2.42;;;;;;;6.73;100.00;100369.19;5124436;28;20043;-87
2024/01/01 11:45:08;;;;;;;;;;;;;;;6.87;100.00;100366.50;5127552;28;20031;-90
2024/01/01 11:47:34;;;;;;;8.80;2.30;;;;;;;6.89;100.00;100367.34;5123603;28;19919;-87
2024/01/01 11:50:03;;;;;;;10.07;2.50;;;;;;;6.95;100.00;100370.75;5118184;28;20023;-86
2024/01/01 11:52:29;;;;;;;10.25;2.50;;;;;;;6.99;100.00;100378.44;5115532;28;20102;-87
2024/01/01 11:54:58;;;;;;;8.77;2.15;;;;;;;7.09;100.00;100380.09;5114834;28;20015;-86
2024/01/01 11:57:23;;;;;;;8.20;2.50;;;;;;;7.04;100.00;100376.69;5107191;28;20025;-86
2024/01/01 11:59:49;;;;;;;9.87;2.53;;;;;;;7.05;100.00;100371.50;5103506;28;20387;-87
2024/01/01 12:02:19;;;;;;;8.18;2.35;;;;;;;7.05;100.00;100381.81;5114721;28;20023;-86